Time;durP1;ratioP1;P1;durP2;ratioP2;P2;SDS_P1;SDS_P2;PMS_P1;PMS_P2;Temp;Humidity;BMP_temperature;BMP_pressure;BME280_temperature;BME280_humidity;BME280_pressure;Samples;Min_cycle;Max_cycle;Signal;HPM_P1;HPM_P2
2022/11/29 05:31:19;;;;;;;6.55;2.92;;;8.10;83.70;;;;;;5696292;23;19934;-78
2022/11/29 05:34:00;;;;;;;7.18;3.70;;;8.10;83.70;;;;;;4915029;29;20420;-78
2022/11/29 05:36:38;;;;;;;;;;;8.00;83.70;;;;;;4920504;29;20071;-75
2022/11/29 05:39:33;;;;;;;5.82;3.00;;;8.00;83.60;;;;;;4920169;29;19913;-76
2022/11/29 05:42:16;;;;;;;4.55;3.17;;;8.10;83.70;;;;;;4914178;29;20032;-76
2022/11/29 05:44:51;;;;;;;7.13;2.85;;;8.00;83.40;;;;;;4901211;29;20035;-75
2022/11/29 05:47:25;;;;;;;10.02;3.50;;;8.00;83.40;;;;;;4902746;29;20024;-75
2022/11/29 05:50:06;;;;;;;7.32;3.53;;;8.00;83.40;;;;;;4919718;29;20043;-75
2022/11/29 05:52:46;;;;;;;3.55;2.63;;;8.00;83.30;;;;;;4905162;29;20052;-75
2022/11/29 05:55:41;;;;;;;5.28;2.80;;;8.00;83.30;;;;;;4901067;29;20115;-74
2022/11/29 05:58:07;;;;;;;8.90;2.97;;;8.00;83.30;;;;;;4900604;29;20032;-75
2022/11/29 06:00:45;;;;;;;10.13;2.95;;;7.90;83.20;;;;;;4883789;29;20033;-74
2022/11/29 06:03:27;;;;;;;9.10;3.55;;;7.80;83.10;;;;;;4919704;29;20040;-76
2022/11/29 06:05:59;;;;;;;6.05;2.90;;;7.80;83.10;;;;;;4916227;29;20087;-74
2022/11/29 06:08:34;;;;;;;6.80;3.35;;;7.80;83.10;;;;;;4910098;29;20037;-74
2022/11/29 06:11:16;;;;;;;7.25;2.55;;;7.80;83.30;;;;;;4902828;29;20111;-76
2022/11/29 06:14:04;;;;;;;11.07;3.42;;;7.80;83.30;;;;;;4913972;29;20079;-74
2022/11/29 06:16:49;;;;;;;4.63;2.97;;;7.80;83.10;;;;;;4924909;29;20123;-74
2022/11/29 06:19:54;;;;;;;10.18;3.03;;;7.80;83.40;;;;;;4927307;29;20088;-74
2022/11/29 06:22:54;;;;;;;6.55;3.30;;;7.70;83.30;;;;;;4900657;29;20037;-80
2022/11/29 06:26:07;;;;;;;7.32;3.75;;;7.70;83.20;;;;;;4900936;29;20039;-77
2022/11/29 06:29:00;;;;;;;11.23;2.88;;;7.70;83.10;;;;;;4913888;29;20040;-75
2022/11/29 06:31:37;;;;;;;7.63;3.03;;;7.70;83.00;;;;;;4872646;29;20130;-75
2022/11/29 06:34:06;;;;;;;8.73;3.33;;;7.70;82.80;;;;;;4899279;29;20024;-75
2022/11/29 06:36:50;;;;;;;10.73;3.67;;;7.60;82.70;;;;;;4903551;29;20103;-75
2022/11/29 06:39:16;;;;;;;12.57;3.38;;;7.70;82.70;;;;;;4912672;29;20040;-75
2022/11/29 06:41:41;;;;;;;7.03;3.95;;;7.60;82.80;;;;;;4919266;29;20040;-75
2022/11/29 06:44:08;;;;;;;3.83;3.08;;;7.60;82.80;;;;;;4919350;29;20460;-74
2022/11/29 06:46:50;;;;;;;9.30;3.60;;;7.60;82.70;;;;;;4917336;29;20059;-74
2022/11/29 06:49:33;;;;;;;10.73;3.80;;;7.60;82.80;;;;;;4900303;29;20028;-75
2022/11/29 06:52:20;;;;;;;13.50;4.22;;;7.50;82.70;;;;;;4908072;29;20071;-77
2022/11/29 06:55:09;;;;;;;9.52;3.65;;;7.50;82.40;;;;;;4919123;29;20034;-74
2022/11/29 06:57:54;;;;;;;5.32;3.03;;;7.50;82.60;;;;;;4905613;29;20076;-74
2022/11/29 07:00:26;;;;;;;8.25;3.90;;;7.50;83.00;;;;;;4921008;29;20025;-77
2022/11/29 07:03:19;;;;;;;5.05;3.65;;;7.40;82.90;;;;;;4902202;29;20020;-75
2022/11/29 07:05:45;;;;;;;7.93;3.22;;;7.40;82.80;;;;;;4898368;29;20080;-77
2022/11/29 07:08:21;;;;;;;8.15;2.85;;;7.40;83.00;;;;;;4900244;29;20029;-76
2022/11/29 07:10:51;;;;;;;6.28;3.85;;;7.30;82.80;;;;;;4905590;29;20107;-77
2022/11/29 07:13:18;;;;;;;5.45;4.13;;;7.40;82.90;;;;;;4902149;29;20875;-75
2022/11/29 07:16:36;;;;;;;8.57;4.05;;;7.40;82.70;;;;;;4907397;29;20036;-75
2022/11/29 07:19:15;;;;;;;5.78;3.55;;;7.30;82.50;;;;;;4866171;29;20627;-75
2022/11/29 07:21:55;;;;;;;5.20;3.85;;;7.30;82.20;;;;;;4891650;29;20176;-77
2022/11/29 07:24:53;;;;;;;9.38;4.03;;;7.30;82.50;;;;;;4896785;29;20117;-75
2022/11/29 07:27:23;;;;;;;5.53;3.70;;;7.20;82.30;;;;;;4913086;29;20123;-77
2022/11/29 07:30:01;;;;;;;5.57;3.42;;;7.30;82.20;;;;;;4922642;29;20067;-75
2022/11/29 07:32:33;;;;;;;3.85;3.13;;;7.20;82.20;;;;;;4910074;29;20078;-75
2022/11/29 07:35:16;;;;;;;5.78;2.95;;;7.20;81.90;;;;;;4908814;29;20071;-75
2022/11/29 07:38:20;;;;;;;6.47;3.55;;;7.20;81.90;;;;;;4899542;29;20056;-77
2022/11/29 07:41:11;;;;;;;8.30;4.88;;;7.20;81.90;;;;;;4895359;29;20043;-77
2022/11/29 07:43:39;;;;;;;10.45;5.10;;;7.20;82.00;;;;;;4903382;29;20060;-77
2022/11/29 07:46:05;;;;;;;7.80;5.18;;;7.30;82.10;;;;;;4920598;29;20499;-77
2022/11/29 07:48:30;;;;;;;7.43;4.68;;;7.30;82.20;;;;;;4903542;29;20029;-77
2022/11/29 07:50:56;;;;;;;12.82;4.40;;;7.30;82.20;;;;;;4903691;29;20535;-77
2022/11/29 07:53:23;;;;;;;13.23;5.18;;;7.40;82.30;;;;;;4903408;29;20587;-77
2022/11/29 07:55:49;;;;;;;8.77;5.10;;;7.40;82.40;;;;;;4915989;29;20420;-77
2022/11/29 07:58:16;;;;;;;9.75;5.28;;;7.50;82.50;;;;;;4924041;29;20043;-77
2022/11/29 08:00:43;;;;;;;5.65;4.68;;;7.60;82.50;;;;;;4935331;29;20033;-77
2022/11/29 08:03:09;;;;;;;7.38;3.88;;;7.60;82.80;;;;;;4907932;29;20099;-77
2022/11/29 08:05:39;;;;;;;5.53;4.32;;;7.60;82.80;;;;;;4908813;29;20513;-77
2022/11/29 08:08:05;;;;;;;14.70;5.65;;;7.70;82.70;;;;;;4903271;29;20028;-77
2022/11/29 08:10:31;;;;;;;6.90;4.47;;;7.60;82.80;;;;;;4906524;29;20024;-77
2022/11/29 08:12:57;;;;;;;7.55;4.50;;;7.60;82.80;;;;;;4909643;29;20416;-77
2022/11/29 08:15:24;;;;;;;9.93;5.20;;;7.60;82.80;;;;;;4886116;29;20033;-77
2022/11/29 08:17:52;;;;;;;7.47;4.43;;;7.70;82.80;;;;;;4902978;29;20025;-77
2022/11/29 08:20:18;;;;;;;12.02;4.95;;;7.70;82.80;;;;;;4901654;29;20028;-77
2022/11/29 08:22:44;;;;;;;7.15;4.35;;;7.70;83.10;;;;;;4893460;29;20068;-77
2022/11/29 08:25:10;;;;;;;14.02;7.40;;;7.70;83.20;;;;;;4893788;29;20060;-77
2022/11/29 08:27:38;;;;;;;8.30;5.15;;;7.70;83.10;;;;;;4921041;29;20035;-77
2022/11/29 08:30:05;;;;;;;9.18;5.30;;;7.70;83.20;;;;;;4904604;29;20027;-77
2022/11/29 08:32:32;;;;;;;9.57;5.65;;;7.70;83.30;;;;;;4910849;29;20048;-77
2022/11/29 08:34:57;;;;;;;10.93;5.53;;;7.70;83.40;;;;;;4902770;29;20024;-77
2022/11/29 08:37:23;;;;;;;9.80;5.32;;;7.70;83.20;;;;;;4902794;29;20040;-77
2022/11/29 08:39:48;;;;;;;11.55;5.05;;;7.70;83.00;;;;;;4902105;29;20080;-77
2022/11/29 08:42:14;;;;;;;7.97;4.50;;;7.80;83.10;;;;;;4902758;29;20620;-77
2022/11/29 08:44:40;;;;;;;5.60;4.25;;;7.70;83.20;;;;;;4885446;29;20039;-77
2022/11/29 08:50:01;;;;;;;10.23;5.18;;;7.70;83.30;;;;;;4902230;29;20084;-77
2022/11/29 08:55:14;;;;;;;8.98;4.38;;;7.80;83.30;;;;;;4902383;29;20140;-77
2022/11/29 08:57:40;;;;;;;8.07;4.07;;;7.90;83.30;;;;;;4931187;29;20070;-77
2022/11/29 09:00:06;;;;;;;11.05;4.82;;;7.90;83.30;;;;;;4930711;29;20036;-77
2022/11/29 09:02:32;;;;;;;9.02;3.88;;;7.90;83.40;;;;;;4902348;29;20737;-77
2022/11/29 09:04:58;;;;;;;5.20;4.00;;;8.00;83.70;;;;;;4909249;29;20039;-77
2022/11/29 09:07:23;;;;;;;7.32;4.65;;;8.00;83.60;;;;;;4902026;29;20476;-77
2022/11/29 09:09:49;;;;;;;10.82;5.25;;;8.10;83.80;;;;;;4901867;29;20102;-77
2022/11/29 09:12:14;;;;;;;19.23;5.80;;;8.30;83.40;;;;;;4919113;29;20126;-77
2022/11/29 09:14:40;;;;;;;9.38;5.43;;;8.40;83.40;;;;;;4910212;29;20130;-77
2022/11/29 09:17:05;;;;;;;9.25;4.65;;;8.50;83.60;;;;;;4920931;29;20059;-77
2022/11/29 09:19:31;;;;;;;7.90;4.30;;;8.60;84.00;;;;;;4920816;29;20051;-77
2022/11/29 09:21:57;;;;;;;9.65;4.13;;;8.70;83.90;;;;;;4920771;29;20049;-77
2022/11/29 09:24:23;;;;;;;9.50;3.85;;;8.70;84.30;;;;;;4907196;29;20021;-77
2022/11/29 09:26:48;;;;;;;5.50;3.90;;;8.70;84.00;;;;;;4920739;29;20024;-78
2022/11/29 09:29:15;;;;;;;8.02;3.63;;;8.70;84.20;;;;;;4904353;29;20044;-76
2022/11/29 09:31:43;;;;;;;5.82;3.58;;;8.80;84.20;;;;;;4901514;29;20524;-77
2022/11/29 09:34:12;;;;;;;9.32;4.22;;;8.80;84.30;;;;;;4901467;29;20038;-77
2022/11/29 09:36:38;;;;;;;6.05;3.45;;;8.80;84.60;;;;;;4910452;29;20039;-77
2022/11/29 09:39:04;;;;;;;11.43;3.45;;;8.80;84.30;;;;;;4919506;29;20036;-77
2022/11/29 09:41:54;;;;;;;6.30;3.25;;;8.90;84.50;;;;;;4922548;29;20155;-77
2022/11/29 09:44:38;;;;;;;6.25;3.90;;;9.00;84.60;;;;;;4920425;29;20032;-77
2022/11/29 09:47:19;;;;;;;6.63;3.17;;;9.00;84.40;;;;;;4908968;29;20037;-77
2022/11/29 09:50:16;;;;;;;12.50;4.13;;;9.10;84.20;;;;;;4895656;29;20051;-77
2022/11/29 09:53:16;;;;;;;6.00;3.13;;;9.20;84.30;;;;;;4911631;29;20664;-77
2022/11/29 09:55:58;;;;;;;5.13;3.75;;;9.20;84.00;;;;;;4913016;29;20028;-77
2022/11/29 09:58:28;;;;;;;9.57;4.15;;;9.20;84.10;;;;;;4901148;29;20043;-77
2022/11/29 10:00:59;;;;;;;;;;;9.20;83.90;;;;;;4901465;29;20029;-78
2022/11/29 10:03:32;;;;;;;8.32;3.78;;;9.20;83.80;;;;;;4907853;29;19960;-75
2022/11/29 10:06:07;;;;;;;7.55;3.67;;;9.20;83.80;;;;;;4919907;29;20099;-77
2022/11/29 10:08:37;;;;;;;7.80;3.42;;;9.30;83.80;;;;;;4920053;29;20123;-77
2022/11/29 10:11:10;;;;;;;10.25;4.32;;;9.30;83.70;;;;;;4914583;29;20044;-77
2022/11/29 10:13:39;;;;;;;8.50;3.63;;;9.40;83.60;;;;;;4919905;29;20036;-78
2022/11/29 10:16:11;;;;;;;9.95;3.35;;;9.50;83.70;;;;;;4919713;29;20051;-77
2022/11/29 10:18:47;;;;;;;13.63;3.55;;;9.50;83.60;;;;;;4902636;29;20100;-77
2022/11/29 10:21:31;;;;;;;10.27;3.38;;;9.60;83.70;;;;;;4902270;29;20028;-77
2022/11/29 10:24:02;;;;;;;12.25;5.07;;;9.70;83.60;;;;;;4900614;29;20028;-78
2022/11/29 10:26:27;;;;;;;9.88;5.13;;;9.90;83.50;;;;;;4902280;29;20154;-77
2022/11/29 10:28:56;;;;;;;13.20;4.45;;;9.90;83.90;;;;;;4913674;29;20791;-77
2022/11/29 10:31:25;;;;;;;7.60;3.97;;;10.00;83.70;;;;;;4900582;29;20108;-77
2022/11/29 10:33:52;;;;;;;9.43;4.07;;;10.00;83.60;;;;;;4900475;29;20039;-77
2022/11/29 10:36:27;;;;;;;9.55;4.25;;;10.10;83.50;;;;;;4900376;29;20064;-77
2022/11/29 10:38:57;;;;;;;6.38;3.85;;;10.10;83.30;;;;;;4900899;29;20116;-76
2022/11/29 10:41:24;;;;;;;6.30;3.88;;;10.10;83.60;;;;;;4907062;29;20699;-76
2022/11/29 10:43:53;;;;;;;10.48;4.30;;;10.10;83.50;;;;;;4929363;29;20027;-77
2022/11/29 10:46:34;;;;;;;10.93;5.07;;;10.20;83.10;;;;;;4900553;29;20029;-77
2022/11/29 10:49:06;;;;;;;11.15;6.93;;;10.20;82.80;;;;;;4906715;29;20110;-77
2022/11/29 10:51:32;;;;;;;14.02;7.35;;;10.20;83.00;;;;;;4914304;29;20028;-77
2022/11/29 10:54:21;;;;;;;8.73;4.82;;;10.20;83.20;;;;;;4900535;29;20039;-77
2022/11/29 10:56:47;;;;;;;10.55;4.85;;;10.30;82.90;;;;;;4916080;29;20100;-77
2022/11/29 10:59:28;;;;;;;11.32;5.38;;;10.30;82.70;;;;;;4930753;29;20029;-77
2022/11/29 11:01:54;;;;;;;13.23;4.43;;;10.30;82.90;;;;;;4898523;29;20037;-77
2022/11/29 11:04:41;;;;;;;6.68;3.58;;;10.40;82.90;;;;;;4914539;29;20080;-77
2022/11/29 11:07:19;;;;;;;7.70;4.13;;;10.50;82.90;;;;;;4897918;29;20412;-77
2022/11/29 11:09:52;;;;;;;7.53;3.88;;;10.50;82.60;;;;;;4900200;29;20037;-77
2022/11/29 11:12:20;;;;;;;11.05;4.68;;;10.60;82.60;;;;;;4910729;29;20039;-77
2022/11/29 11:14:46;;;;;;;7.07;4.22;;;10.60;82.70;;;;;;4883498;29;20557;-77
2022/11/29 11:17:17;;;;;;;10.13;4.50;;;10.60;82.30;;;;;;4904400;29;20084;-77
2022/11/29 11:20:01;;;;;;;10.15;4.28;;;10.60;82.40;;;;;;4905823;29;20029;-77
2022/11/29 11:22:28;;;;;;;7.78;3.80;;;10.60;82.70;;;;;;4898738;29;20036;-76
2022/11/29 11:25:04;;;;;;;9.07;4.38;;;10.60;82.90;;;;;;4905818;29;20475;-77
2022/11/29 11:27:33;;;;;;;10.07;4.90;;;10.70;82.90;;;;;;4916751;29;20031;-77
2022/11/29 11:30:01;;;;;;;11.23;5.37;;;10.70;82.90;;;;;;4900270;29;20044;-77
2022/11/29 11:32:27;;;;;;;8.07;4.55;;;10.70;83.30;;;;;;4917779;29;20079;-76
2022/11/29 11:34:55;;;;;;;13.73;5.13;;;10.80;82.90;;;;;;4900359;29;20037;-77
2022/11/29 11:37:32;;;;;;;7.75;5.10;;;10.80;82.90;;;;;;4898757;29;20058;-77
2022/11/29 11:40:24;;;;;;;10.93;4.78;;;10.90;82.60;;;;;;4899843;29;20092;-76
2022/11/29 11:42:50;;;;;;;12.18;5.05;;;11.00;82.80;;;;;;4900020;29;20033;-77
2022/11/29 11:45:15;;;;;;;7.10;4.32;;;11.00;82.60;;;;;;4900149;29;20492;-77
2022/11/29 11:47:54;;;;;;;9.23;4.93;;;11.10;82.60;;;;;;4899783;29;20025;-77
2022/11/29 11:50:41;;;;;;;8.77;4.55;;;11.10;82.70;;;;;;4883433;29;20024;-77
2022/11/29 11:53:22;;;;;;;9.45;4.57;;;11.10;82.70;;;;;;4900046;29;20116;-77
2022/11/29 11:56:01;;;;;;;7.57;4.93;;;11.10;82.70;;;;;;4911647;29;20036;-77
2022/11/29 11:58:36;;;;;;;14.55;5.25;;;11.10;82.80;;;;;;4900141;29;20036;-77
2022/11/29 12:01:26;;;;;;;9.35;5.60;;;11.10;82.80;;;;;;4899931;29;20020;-77
2022/11/29 12:04:18;;;;;;;8.77;5.43;;;11.10;83.40;;;;;;4903766;29;20082;-77
2022/11/29 12:06:51;;;;;;;12.82;5.13;;;11.20;83.30;;;;;;4907842;29;20043;-77
2022/11/29 12:09:32;;;;;;;11.95;5.28;;;11.20;83.20;;;;;;4903380;29;20033;-77
2022/11/29 12:12:03;;;;;;;11.68;5.68;;;11.20;83.10;;;;;;4911836;29;20504;-76
2022/11/29 12:14:35;;;;;;;11.02;5.25;;;11.20;83.00;;;;;;4903240;29;20060;-76
2022/11/29 12:17:10;;;;;;;6.90;5.15;;;11.30;82.90;;;;;;4903075;29;20029;-77
2022/11/29 12:19:51;;;;;;;7.88;4.95;;;11.40;82.80;;;;;;4902897;29;20056;-77
2022/11/29 12:22:23;;;;;;;4.88;3.53;;;11.50;82.70;;;;;;4903006;29;20110;-76
2022/11/29 12:25:01;;;;;;;9.43;3.58;;;11.50;82.70;;;;;;4907739;29;20068;-77
2022/11/29 12:27:28;;;;;;;7.05;3.42;;;11.50;82.50;;;;;;4920562;29;20060;-77
2022/11/29 12:29:55;;;;;;;6.03;3.28;;;11.60;82.30;;;;;;4891424;29;20111;-77
2022/11/29 12:32:46;;;;;;;9.38;3.40;;;11.60;82.40;;;;;;4902664;29;20108;-76
2022/11/29 12:35:43;;;;;;;8.65;3.38;;;11.70;82.50;;;;;;4902701;29;20076;-77
2022/11/29 12:38:31;;;;;;;10.07;3.55;;;11.60;82.40;;;;;;4901117;29;20036;-76
2022/11/29 12:41:12;;;;;;;6.32;2.65;;;11.60;82.30;;;;;;4901054;29;20031;-76
2022/11/29 12:44:14;;;;;;;4.82;2.40;;;11.50;82.70;;;;;;4901339;29;20068;-77
2022/11/29 12:46:48;;;;;;;5.03;2.25;;;11.50;82.50;;;;;;4901056;29;20039;-77
2022/11/29 12:49:40;;;;;;;2.58;2.17;;;11.40;82.10;;;;;;4885751;29;20032;-77
2022/11/29 12:52:21;;;;;;;4.80;2.55;;;11.30;82.30;;;;;;4902666;29;20124;-76
2022/11/29 12:55:03;;;;;;;6.88;3.35;;;11.30;82.20;;;;;;4934050;29;20036;-77
2022/11/29 12:57:35;;;;;;;5.85;3.42;;;11.30;82.10;;;;;;4940279;29;20156;-77
2022/11/29 13:00:15;;;;;;;6.38;3.17;;;11.40;82.10;;;;;;4903258;29;20108;-77
2022/11/29 13:03:18;;;;;;;5.10;2.78;;;11.30;82.10;;;;;;4902630;29;20035;-77
2022/11/29 13:06:02;;;;;;;10.13;2.88;;;11.30;82.10;;;;;;4919971;29;20496;-77
2022/11/29 13:08:50;;;;;;;4.53;2.50;;;11.30;81.70;;;;;;4921058;29;20032;-77
2022/11/29 13:11:35;;;;;;;5.72;2.33;;;11.40;81.00;;;;;;4902857;29;20564;-78
2022/11/29 13:14:27;;;;;;;4.85;2.63;;;11.50;80.90;;;;;;4901923;29;20035;-77
2022/11/29 13:17:02;;;;;;;2.95;2.05;;;11.60;80.20;;;;;;4898550;29;20104;-77
2022/11/29 13:19:44;;;;;;;4.05;2.20;;;11.60;80.40;;;;;;4901976;29;20063;-77
2022/11/29 13:22:25;;;;;;;3.78;2.35;;;11.60;79.80;;;;;;4901666;29;20033;-77
2022/11/29 13:25:00;;;;;;;2.65;1.77;;;11.70;79.50;;;;;;4907188;29;20052;-76
2022/11/29 13:27:31;;;;;;;5.25;2.90;;;11.60;79.50;;;;;;4903713;29;20028;-77
2022/11/29 13:29:59;;;;;;;4.55;2.83;;;11.70;79.10;;;;;;4901903;29;20119;-78
2022/11/29 13:32:41;;;;;;;5.90;2.67;;;11.70;79.10;;;;;;4901539;29;20060;-77
2022/11/29 13:35:48;;;;;;;6.80;2.85;;;11.70;78.90;;;;;;4901745;29;20135;-77
2022/11/29 13:38:28;;;;;;;3.83;2.60;;;11.70;79.00;;;;;;4884695;29;20047;-77
2022/11/29 13:41:06;;;;;;;5.25;2.80;;;11.80;79.30;;;;;;4905662;29;20024;-77
2022/11/29 13:43:44;;;;;;;5.38;2.35;;;11.80;79.10;;;;;;4900575;29;20036;-77
2022/11/29 13:46:40;;;;;;;3.70;2.55;;;11.80;79.10;;;;;;4901623;29;20031;-78
2022/11/29 13:49:20;;;;;;;7.65;3.08;;;11.80;79.00;;;;;;4901453;29;20473;-77
2022/11/29 13:51:45;;;;;;;5.45;2.08;;;11.80;78.70;;;;;;4901354;29;20033;-78
2022/11/29 13:54:33;;;;;;;2.70;1.90;;;11.80;78.60;;;;;;4901536;29;20520;-78
2022/11/29 13:57:07;;;;;;;4.93;1.88;;;11.80;78.10;;;;;;4909905;29;20032;-78
2022/11/29 13:59:36;;;;;;;5.78;1.90;;;11.90;78.10;;;;;;4901218;29;20416;-78
2022/11/29 14:02:02;;;;;;;7.25;2.35;;;11.80;78.00;;;;;;4884411;29;20045;-78
2022/11/29 14:04:38;;;;;;;3.17;1.63;;;11.80;77.80;;;;;;4914603;29;20020;-77
2022/11/29 14:07:18;;;;;;;3.22;1.45;;;11.80;78.10;;;;;;4901164;29;20108;-77
2022/11/29 14:10:07;;;;;;;2.85;1.83;;;11.70;78.20;;;;;;4901073;29;20040;-77
2022/11/29 14:12:42;;;;;;;2.13;1.57;;;11.50;78.50;;;;;;4900838;29;20033;-77
2022/11/29 14:15:20;;;;;;;2.80;1.70;;;11.50;78.80;;;;;;4884290;29;20261;-77
2022/11/29 14:17:50;;;;;;;7.20;1.90;;;11.40;79.30;;;;;;4900986;29;20056;-77
2022/11/29 14:20:22;;;;;;;5.72;2.10;;;11.50;79.40;;;;;;4900780;29;20100;-77
2022/11/29 14:23:03;;;;;;;7.15;2.28;;;11.70;79.20;;;;;;4900882;29;20107;-77
2022/11/29 14:25:30;;;;;;;2.97;1.70;;;11.70;79.10;;;;;;4908910;29;20035;-77
2022/11/29 14:27:58;;;;;;;2.75;1.90;;;11.80;77.90;;;;;;4919689;29;20048;-77
2022/11/29 14:30:44;;;;;;;4.10;1.77;;;11.80;77.50;;;;;;4919454;29;20070;-77
2022/11/29 14:33:27;;;;;;;4.30;1.70;;;11.80;78.00;;;;;;4909179;29;20119;-77
2022/11/29 14:35:56;;;;;;;4.07;1.98;;;11.90;78.40;;;;;;4899444;29;20461;-77
2022/11/29 14:38:44;;;;;;;2.58;2.00;;;11.90;77.40;;;;;;4900589;29;20040;-77
2022/11/29 14:41:22;;;;;;;4.78;2.30;;;12.00;77.40;;;;;;4900302;29;20107;-77
2022/11/29 14:43:48;;;;;;;3.30;2.20;;;12.10;77.30;;;;;;4900662;29;20509;-77
2022/11/29 14:46:13;;;;;;;6.35;1.80;;;12.20;77.20;;;;;;4900660;29;20055;-77
2022/11/29 14:48:54;;;;;;;6.30;1.98;;;12.30;76.60;;;;;;4890501;29;20060;-77
2022/11/29 14:51:22;;;;;;;2.55;1.98;;;12.30;76.70;;;;;;4915866;29;20028;-77
2022/11/29 14:54:02;;;;;;;6.72;2.20;;;12.40;76.30;;;;;;4900528;29;20055;-78
2022/11/29 14:56:30;;;;;;;4.90;1.60;;;12.40;76.40;;;;;;4918298;29;20036;-77
2022/11/29 14:59:33;;;;;;;3.15;1.65;;;12.40;76.20;;;;;;4913783;29;20040;-77
2022/11/29 15:02:24;;;;;;;3.95;1.63;;;12.40;75.80;;;;;;4900494;29;20077;-77
2022/11/29 15:04:53;;;;;;;3.60;1.70;;;12.30;75.50;;;;;;4918142;29;20614;-77
2022/11/29 15:07:31;;;;;;;2.90;1.47;;;12.30;75.60;;;;;;4898060;29;20041;-77
2022/11/29 15:10:01;;;;;;;3.78;1.50;;;12.30;75.70;;;;;;4900328;29;20823;-77
2022/11/29 15:12:32;;;;;;;3.72;1.73;;;12.20;75.80;;;;;;4911649;29;20421;-76
2022/11/29 15:15:16;;;;;;;3.35;1.83;;;12.10;76.00;;;;;;4900322;29;20053;-77
2022/11/29 15:17:52;;;;;;;2.97;1.40;;;12.00;76.10;;;;;;4900228;29;20052;-77
2022/11/29 15:20:30;;;;;;;4.38;1.95;;;11.90;76.40;;;;;;4899945;29;20127;-77
2022/11/29 15:23:02;;;;;;;4.82;2.20;;;11.80;76.70;;;;;;4900351;29;20024;-77
2022/11/29 15:25:30;;;;;;;3.65;2.47;;;11.70;76.90;;;;;;4910093;29;20020;-77
2022/11/29 15:27:58;;;;;;;3.78;2.88;;;11.60;77.00;;;;;;4897891;29;20029;-77
2022/11/29 15:30:36;;;;;;;5.50;2.85;;;11.50;77.00;;;;;;4883165;29;20080;-77
2022/11/29 15:33:07;;;;;;;3.95;2.58;;;11.40;77.50;;;;;;4934980;29;20024;-76
2022/11/29 15:35:35;;;;;;;4.95;2.22;;;11.30;77.90;;;;;;4903178;29;20035;-77
2022/11/29 15:38:01;;;;;;;3.03;1.95;;;11.30;78.00;;;;;;4903681;29;20085;-77
2022/11/29 15:40:35;;;;;;;7.68;2.88;;;11.20;77.90;;;;;;4907639;29;20387;-77
2022/11/29 15:43:33;;;;;;;6.05;2.50;;;11.10;78.50;;;;;;4903994;29;20036;-76
2022/11/29 15:46:00;;;;;;;4.05;2.22;;;11.10;78.70;;;;;;4897174;29;20036;-77
2022/11/29 15:48:29;;;;;;;4.30;3.03;;;11.00;78.80;;;;;;4905626;29;20040;-76
2022/11/29 15:51:03;;;;;;;5.72;3.03;;;11.00;78.90;;;;;;4920822;29;20035;-76
2022/11/29 15:53:46;;;;;;;6.22;3.22;;;10.90;79.00;;;;;;4913635;29;20032;-76
2022/11/29 15:56:45;;;;;;;7.90;3.70;;;10.90;78.90;;;;;;4895767;29;20127;-76
2022/11/29 15:59:28;;;;;;;9.25;5.15;;;10.80;79.30;;;;;;4903079;29;20044;-76
2022/11/29 16:01:59;;;;;;;10.35;5.80;;;10.80;79.40;;;;;;4915062;29;20032;-76
2022/11/29 16:04:26;;;;;;;9.20;4.78;;;10.70;79.60;;;;;;4920778;29;20059;-76
2022/11/29 16:06:54;;;;;;;5.13;4.05;;;10.70;79.60;;;;;;4904133;29;20027;-76
2022/11/29 16:09:47;;;;;;;9.98;4.20;;;10.70;79.90;;;;;;4922478;29;20420;-76
2022/11/29 16:12:17;;;;;;;10.02;4.93;;;10.60;80.10;;;;;;4918867;29;20623;-74
2022/11/29 16:14:57;;;;;;;14.60;5.50;;;10.60;80.30;;;;;;4921798;29;20542;-74
2022/11/29 16:17:33;;;;;;;13.68;4.50;;;10.50;80.30;;;;;;4920528;29;20039;-74
2022/11/29 16:20:15;;;;;;;7.00;4.75;;;10.50;80.50;;;;;;4918042;29;20029;-75
2022/11/29 16:22:41;;;;;;;18.63;9.80;;;10.40;80.40;;;;;;4904328;29;20031;-75
2022/11/29 16:25:18;;;;;;;15.82;7.90;;;10.40;80.50;;;;;;4921335;29;20091;-75
2022/11/29 16:27:44;;;;;;;10.68;5.55;;;10.40;80.50;;;;;;4919746;29;20028;-75
2022/11/29 16:30:21;;;;;;;10.32;6.47;;;10.30;80.40;;;;;;4903792;29;20024;-75
2022/11/29 16:32:53;;;;;;;9.93;6.30;;;10.30;80.60;;;;;;4918113;29;20579;-75
2022/11/29 16:35:23;;;;;;;5.65;4.57;;;10.30;80.70;;;;;;4918651;29;20575;-75
2022/11/29 16:37:49;;;;;;;7.00;4.07;;;10.30;80.60;;;;;;4918478;29;20032;-75
2022/11/29 16:40:29;;;;;;;8.40;4.80;;;10.20;80.70;;;;;;4907745;29;20043;-75
2022/11/29 16:43:07;;;;;;;12.90;7.28;;;10.20;80.70;;;;;;4908384;29;20039;-76
2022/11/29 16:45:33;;;;;;;42.38;19.45;;;10.20;80.80;;;;;;4901866;29;20088;-76
2022/11/29 16:48:00;;;;;;;32.03;15.60;;;10.20;80.80;;;;;;4900867;29;20033;-76
2022/11/29 16:50:30;;;;;;;30.50;15.55;;;10.10;80.70;;;;;;4906054;29;20031;-77
2022/11/29 16:53:32;;;;;;;20.95;12.40;;;10.10;80.70;;;;;;4911403;29;20024;-77
2022/11/29 16:55:58;;;;;;;16.38;12.10;;;10.00;80.80;;;;;;4918592;29;20028;-80
2022/11/29 16:58:23;;;;;;;14.40;10.00;;;10.00;80.80;;;;;;4877326;29;20075;-77
2022/11/29 17:00:49;;;;;;;14.45;8.70;;;10.00;80.80;;;;;;4913347;29;20107;-76
2022/11/29 17:03:14;;;;;;;17.33;9.85;;;10.00;80.70;;;;;;4891671;29;20031;-78
2022/11/29 17:05:40;;;;;;;19.17;10.85;;;9.90;80.80;;;;;;4908304;29;20099;-78
2022/11/29 17:08:06;;;;;;;12.95;9.50;;;9.90;80.70;;;;;;4913783;29;20096;-78
2022/11/29 17:10:31;;;;;;;14.30;10.23;;;9.80;80.80;;;;;;4913005;29;20560;-78
2022/11/29 17:12:57;;;;;;;18.38;10.30;;;9.80;80.80;;;;;;4916857;29;20056;-78
2022/11/29 17:15:28;;;;;;;17.92;11.95;;;9.80;80.90;;;;;;4914325;29;20076;-77
2022/11/29 17:17:53;;;;;;;22.65;14.48;;;9.80;80.80;;;;;;4912488;29;20040;-78
2022/11/29 17:20:19;;;;;;;21.92;12.60;;;9.80;80.90;;;;;;4918028;29;20042;-78
2022/11/29 17:22:44;;;;;;;19.27;12.30;;;9.70;80.90;;;;;;4914847;29;20036;-77
2022/11/29 17:25:10;;;;;;;17.35;13.05;;;9.70;80.90;;;;;;4916091;29;20016;-78
2022/11/29 17:27:36;;;;;;;24.70;17.00;;;9.70;81.00;;;;;;4911859;29;20036;-77
2022/11/29 17:30:03;;;;;;;24.02;17.48;;;9.60;81.00;;;;;;4916709;29;20036;-78
2022/11/29 17:32:30;;;;;;;29.33;21.00;;;9.60;81.10;;;;;;4910457;29;20048;-77
2022/11/29 17:34:56;;;;;;;34.25;22.30;;;9.60;80.90;;;;;;4885163;29;20040;-78
2022/11/29 17:37:21;;;;;;;35.65;23.10;;;9.60;80.90;;;;;;4915920;29;20036;-77
2022/11/29 17:39:47;;;;;;;37.10;20.95;;;9.60;80.80;;;;;;4908986;29;20051;-78
2022/11/29 17:42:13;;;;;;;32.30;19.02;;;9.50;80.80;;;;;;4919145;29;20028;-78
2022/11/29 17:44:39;;;;;;;32.47;17.73;;;9.50;80.70;;;;;;4911435;29;20024;-78
2022/11/29 17:47:05;;;;;;;34.85;18.00;;;9.50;81.00;;;;;;4908083;29;20028;-78
2022/11/29 17:49:33;;;;;;;36.55;17.90;;;9.50;80.80;;;;;;4900974;29;20079;-78
2022/11/29 17:51:59;;;;;;;67.53;25.52;;;9.50;80.90;;;;;;4910934;29;20028;-78
2022/11/29 17:54:24;;;;;;;48.08;24.23;;;9.40;80.60;;;;;;4912148;29;20028;-79
2022/11/29 17:56:50;;;;;;;51.97;24.25;;;9.30;80.70;;;;;;4914406;29;20100;-78
2022/11/29 17:59:16;;;;;;;61.38;28.95;;;9.30;80.80;;;;;;4895121;29;20051;-78
2022/11/29 18:01:42;;;;;;;65.32;28.35;;;9.30;80.80;;;;;;4913448;29;20036;-78
2022/11/29 18:04:07;;;;;;;67.18;30.63;;;9.20;80.50;;;;;;4913650;29;20039;-78
2022/11/29 18:06:41;;;;;;;65.22;32.58;;;9.20;80.40;;;;;;4908675;29;20042;-78
2022/11/29 18:09:08;;;;;;;64.07;31.08;;;9.20;80.90;;;;;;4913224;29;20067;-78
2022/11/29 18:11:37;;;;;;;55.33;25.90;;;9.20;80.80;;;;;;4911822;29;20039;-77
2022/11/29 18:14:03;;;;;;;45.30;23.73;;;9.20;81.00;;;;;;4910031;29;20047;-77
2022/11/29 18:16:31;;;;;;;44.78;23.23;;;9.10;80.70;;;;;;4917453;29;20024;-78
2022/11/29 18:19:09;;;;;;;41.97;23.20;;;9.10;80.80;;;;;;4910504;29;20066;-78
2022/11/29 18:21:36;;;;;;;35.55;21.17;;;9.00;80.60;;;;;;4915051;29;20890;-83
2022/11/29 18:24:10;;;;;;;50.33;25.63;;;9.00;80.70;;;;;;4893384;29;20027;-83
2022/11/29 18:26:36;;;;;;;40.10;25.23;;;9.00;80.90;;;;;;4916920;29;20047;-84
2022/11/29 18:29:04;;;;;;;41.83;25.35;;;9.00;80.90;;;;;;4900201;29;20064;-85
2022/11/29 18:31:37;;;;;;;45.38;27.98;;;9.00;81.10;;;;;;4917417;29;20051;-83
2022/11/29 18:34:08;;;;;;;41.17;28.50;;;8.90;81.00;;;;;;4915574;29;20063;-88
2022/11/29 18:36:36;;;;;;;41.90;26.23;;;8.90;80.90;;;;;;4909212;29;20039;-83
2022/11/29 18:39:05;;;;;;;44.78;27.70;;;8.90;81.10;;;;;;4900849;29;20408;-82
2022/11/29 18:41:31;;;;;;;47.30;27.27;;;8.90;80.90;;;;;;4914045;29;20078;-87
2022/11/29 18:44:06;;;;;;;40.35;26.98;;;8.80;81.00;;;;;;4901372;29;20028;-87
2022/11/29 18:46:34;;;;;;;46.20;25.92;;;8.80;80.90;;;;;;4914076;29;20419;-86
2022/11/29 18:49:00;;;;;;;45.95;26.88;;;8.80;80.80;;;;;;4900821;29;20040;-87
2022/11/29 18:51:27;;;;;;;59.97;31.85;;;8.70;80.80;;;;;;4916421;29;20032;-82
2022/11/29 18:53:53;;;;;;;60.83;34.67;;;8.70;80.80;;;;;;4905875;29;20083;-81
2022/11/29 18:56:21;;;;;;;71.68;36.78;;;8.70;80.90;;;;;;4916373;29;20024;-83
2022/11/29 18:58:56;;;;;;;76.25;43.35;;;8.70;81.00;;;;;;4911534;29;20042;-90
2022/11/29 19:01:24;;;;;;;70.82;39.30;;;8.70;80.90;;;;;;4906092;29;20024;-85